Terminal Aerodrome Forecast
Issued by NWS Kansas City/Pleasant Hill, MO

Home | Current Version | Previous Version | Text Only | Print | Product List | Glossary On
Versions: 1 2 3 4 5 6 7 8 9 10 11 12 13 14 15 16 17
000
FTUS43 KEAX 241022 AAA
TAFMCI
TAF AMD
KMCI 241022Z 2410/2506 32006KT P6SM BKN050
      TEMPO 2410/2412 BKN015
     FM241200 32008KT P6SM BKN025
     FM241600 34010KT P6SM BKN035=

USA.gov is the U.S. government's official web portal to all federal, state and local government web resources and services.